THA215 VTBD-VTSP
Flight info
| Callsign | THA215 |
|---|---|
| Flight time | N/A |
| Altitude | 32000 |
| Route | SABIS3A SABIS Y8 SAVSA SAVSA1D |
| Aircraft | A306/H-SDE3FGHIRWY/LB1 |
Departure
| Time | 2026-04-29 13:14 |
|---|---|
| Airport | Don Mueang International Airport (VTBD) |
Arrival
| Time | N/A |
|---|---|
| Airport | Phuket International Airport (VTSP) |
| Time | Latitude | Longitude | Altitude | Speed | Heading |
|---|---|---|---|---|---|
| 2026-04-29 12:39 | 13.91124 | 100.59915 | 26 ft | 0 kts | 28° |
| 2026-04-29 13:04 | 13.91103 | 100.59903 | 24 ft | 4 kts | 35° |
| 2026-04-29 13:04 | 13.91083 | 100.59885 | 26 ft | 4 kts | 52° |
| 2026-04-29 13:04 | 13.91072 | 100.59863 | 26 ft | 4 kts | 98° |
| 2026-04-29 13:05 | 13.91074 | 100.59854 | 26 ft | 0 kts | 118° |
| 2026-04-29 13:08 | 13.91073 | 100.59856 | -2 ft | 2 kts | 118° |
| 2026-04-29 13:09 | 13.91051 | 100.59899 | 24 ft | 12 kts | 118° |
| 2026-04-29 13:09 | 13.91010 | 100.59977 | 24 ft | 12 kts | 118° |
| 2026-04-29 13:09 | 13.90979 | 100.60051 | 26 ft | 11 kts | 98° |
| 2026-04-29 13:09 | 13.90999 | 100.60119 | 26 ft | 10 kts | 56° |
| 2026-04-29 13:10 | 13.91051 | 100.60163 | 25 ft | 12 kts | 28° |
| 2026-04-29 13:10 | 13.91156 | 100.60220 | 24 ft | 22 kts | 28° |
| 2026-04-29 13:10 | 13.91319 | 100.60309 | 25 ft | 29 kts | 28° |
| 2026-04-29 13:10 | 13.91494 | 100.60409 | 26 ft | 28 kts | 29° |
| 2026-04-29 13:11 | 13.91660 | 100.60503 | 23 ft | 26 kts | 29° |
| 2026-04-29 13:11 | 13.91816 | 100.60593 | 25 ft | 25 kts | 28° |
| 2026-04-29 13:11 | 13.91963 | 100.60673 | 28 ft | 23 kts | 28° |
| 2026-04-29 13:11 | 13.92102 | 100.60751 | 26 ft | 22 kts | 28° |
| 2026-04-29 13:12 | 13.92234 | 100.60826 | 24 ft | 21 kts | 29° |
| 2026-04-29 13:12 | 13.92360 | 100.60897 | 27 ft | 20 kts | 28° |
| 2026-04-29 13:12 | 13.92480 | 100.60964 | 23 ft | 19 kts | 28° |
| 2026-04-29 13:12 | 13.92594 | 100.61028 | 25 ft | 18 kts | 28° |
| 2026-04-29 13:13 | 13.92638 | 100.61121 | 25 ft | 16 kts | 106° |
| 2026-04-29 13:13 | 13.92579 | 100.61203 | 22 ft | 13 kts | 173° |
| 2026-04-29 13:13 | 13.92487 | 100.61159 | 23 ft | 23 kts | 209° |
| 2026-04-29 13:13 | 13.92268 | 100.61037 | 26 ft | 56 kts | 208° |
| 2026-04-29 13:14 | 13.91674 | 100.60720 | 24 ft | 135 kts | 209° |
| 2026-04-29 13:14 | 13.90667 | 100.60120 | 324 ft | 188 kts | 208° |
| 2026-04-29 13:14 | 13.89541 | 100.59475 | 1687 ft | 185 kts | 206° |
| 2026-04-29 13:14 | 13.88456 | 100.58676 | 2619 ft | 194 kts | 221° |
| 2026-04-29 13:15 | 13.87695 | 100.57460 | 3246 ft | 218 kts | 252° |
| 2026-04-29 13:15 | 13.87838 | 100.55853 | 3783 ft | 241 kts | 291° |
| 2026-04-29 13:15 | 13.88663 | 100.54280 | 4209 ft | 263 kts | 300° |
| 2026-04-29 13:15 | 13.89565 | 100.52601 | 4993 ft | 270 kts | 297° |
| 2026-04-29 13:16 | 13.90387 | 100.50847 | 5922 ft | 273 kts | 294° |
| 2026-04-29 13:16 | 13.91033 | 100.49011 | 6844 ft | 274 kts | 283° |
| 2026-04-29 13:16 | 13.91164 | 100.47050 | 7722 ft | 279 kts | 263° |
| 2026-04-29 13:16 | 13.90522 | 100.45164 | 8604 ft | 284 kts | 237° |
| 2026-04-29 13:17 | 13.89075 | 100.43778 | 9490 ft | 289 kts | 210° |
| 2026-04-29 13:17 | 13.87274 | 100.42890 | 10355 ft | 295 kts | 204° |
| 2026-04-29 13:17 | 13.85326 | 100.42040 | 10769 ft | 315 kts | 203° |
| 2026-04-29 13:17 | 13.83244 | 100.41138 | 11085 ft | 334 kts | 203° |
| 2026-04-29 13:18 | 13.81046 | 100.40178 | 11389 ft | 352 kts | 204° |
| 2026-04-29 13:18 | 13.78745 | 100.39164 | 11678 ft | 368 kts | 204° |
| 2026-04-29 13:18 | 13.76358 | 100.38107 | 12045 ft | 378 kts | 204° |
| 2026-04-29 13:18 | 13.73919 | 100.37024 | 12466 ft | 386 kts | 204° |
| 2026-04-29 13:19 | 13.71449 | 100.35928 | 13025 ft | 389 kts | 204° |
| 2026-04-29 13:19 | 13.68948 | 100.34817 | 13547 ft | 392 kts | 204° |
| 2026-04-29 13:19 | 13.66469 | 100.33717 | 14106 ft | 393 kts | 204° |
| 2026-04-29 13:19 | 13.63944 | 100.32596 | 14588 ft | 397 kts | 204° |
| 2026-04-29 13:20 | 13.61409 | 100.31471 | 15118 ft | 398 kts | 204° |
| 2026-04-29 13:20 | 13.58840 | 100.30331 | 15513 ft | 404 kts | 204° |
| 2026-04-29 13:20 | 13.56260 | 100.29187 | 15979 ft | 407 kts | 204° |
| 2026-04-29 13:20 | 13.53639 | 100.28026 | 16437 ft | 411 kts | 204° |
| 2026-04-29 13:21 | 13.51017 | 100.26863 | 16972 ft | 412 kts | 204° |
| 2026-04-29 13:21 | 13.48383 | 100.25697 | 17497 ft | 413 kts | 204° |
| 2026-04-29 13:21 | 13.45772 | 100.24540 | 17885 ft | 417 kts | 204° |
| 2026-04-29 13:21 | 13.43104 | 100.23359 | 18281 ft | 420 kts | 204° |
| 2026-04-29 13:22 | 13.40411 | 100.22166 | 18562 ft | 425 kts | 204° |
| 2026-04-29 13:22 | 13.37694 | 100.20964 | 19000 ft | 425 kts | 204° |
| 2026-04-29 13:22 | 13.34931 | 100.19879 | 19385 ft | 426 kts | 198° |
| 2026-04-29 13:22 | 13.32006 | 100.19318 | 19724 ft | 431 kts | 186° |
| 2026-04-29 13:23 | 13.28993 | 100.19212 | 20009 ft | 435 kts | 182° |
| 2026-04-29 13:23 | 13.25976 | 100.19200 | 20486 ft | 433 kts | 181° |
| 2026-04-29 13:23 | 13.22984 | 100.19189 | 20709 ft | 438 kts | 181° |
| 2026-04-29 13:23 | 13.19938 | 100.19172 | 21070 ft | 439 kts | 181° |
| 2026-04-29 13:24 | 13.16871 | 100.19152 | 21359 ft | 441 kts | 181° |
| 2026-04-29 13:24 | 13.13806 | 100.19129 | 21740 ft | 442 kts | 181° |
| 2026-04-29 13:24 | 13.10716 | 100.19105 | 22018 ft | 444 kts | 181° |
| 2026-04-29 13:24 | 13.07626 | 100.19063 | 22366 ft | 444 kts | 183° |
| 2026-04-29 13:25 | 13.04558 | 100.18754 | 22678 ft | 444 kts | 190° |
| 2026-04-29 13:25 | 12.98705 | 100.16640 | 23002 ft | 451 kts | 209° |
| 2026-04-29 13:25 | 12.96141 | 100.14860 | 23316 ft | 451 kts | 218° |
| 2026-04-29 13:26 | 12.93799 | 100.12726 | 23611 ft | 450 kts | 223° |
| 2026-04-29 13:26 | 12.91553 | 100.10471 | 23734 ft | 454 kts | 225° |
| 2026-04-29 13:26 | 12.89342 | 100.08145 | 23824 ft | 459 kts | 226° |
| 2026-04-29 13:26 | 12.87130 | 100.05782 | 24064 ft | 458 kts | 226° |
| 2026-04-29 13:27 | 12.84933 | 100.03436 | 24354 ft | 457 kts | 226° |
| 2026-04-29 13:27 | 12.82712 | 100.01084 | 24444 ft | 461 kts | 226° |
| 2026-04-29 13:27 | 12.80465 | 99.98722 | 24622 ft | 463 kts | 226° |
| 2026-04-29 13:27 | 12.78246 | 99.96405 | 24859 ft | 462 kts | 226° |
| 2026-04-29 13:28 | 12.75992 | 99.94059 | 25013 ft | 465 kts | 226° |
| 2026-04-29 13:28 | 12.73711 | 99.91689 | 25083 ft | 469 kts | 225° |
| 2026-04-29 13:28 | 12.71418 | 99.89309 | 25327 ft | 468 kts | 226° |
| 2026-04-29 13:28 | 12.69126 | 99.86931 | 25544 ft | 469 kts | 225° |
| 2026-04-29 13:29 | 12.66831 | 99.84548 | 25661 ft | 471 kts | 226° |
| 2026-04-29 13:29 | 12.64519 | 99.82154 | 25805 ft | 473 kts | 225° |
| 2026-04-29 13:29 | 12.62028 | 99.79948 | 25966 ft | 475 kts | 218° |
| 2026-04-29 13:29 | 12.59265 | 99.78159 | 26135 ft | 478 kts | 208° |
| 2026-04-29 13:30 | 12.56189 | 99.76856 | 26291 ft | 481 kts | 198° |
| 2026-04-29 13:30 | 12.52911 | 99.76157 | 26440 ft | 484 kts | 187° |
| 2026-04-29 13:30 | 12.49543 | 99.75941 | 26608 ft | 486 kts | 183° |
| 2026-04-29 13:30 | 12.47304 | 99.75894 | 26694 ft | 487 kts | 182° |